Time;durP1;ratioP1;P1;durP2;ratioP2;P2;SDS_P1;SDS_P2;PMS_P1;PMS_P2;Temp;Humidity;BMP_temperature;BMP_pressure;BME280_temperature;BME280_humidity;BME280_pressure;Samples;Min_cycle;Max_cycle;Signal;HPM_P1;HPM_P2
2024/03/23 00:00:39;;;;;;;0.30;0.30;;;;;;;8.93;100.00;98587.94;5053822;28;20190;-58
2024/03/23 00:03:10;;;;;;;0.28;0.28;;;;;;;9.03;100.00;98585.41;5048195;28;20148;-59
2024/03/23 00:05:41;;;;;;;0.20;0.20;;;;;;;9.08;100.00;98577.44;5052350;28;20052;-59
2024/03/23 00:08:12;;;;;;;0.30;0.30;;;;;;;9.04;100.00;98576.34;5049017;28;20044;-59
2024/03/23 00:10:42;;;;;;;0.20;0.20;;;;;;;8.89;100.00;98570.81;5060997;28;20137;-59
2024/03/23 00:13:13;;;;;;;0.30;0.30;;;;;;;8.83;100.00;98564.56;5052531;28;20037;-59
2024/03/23 00:15:42;;;;;;;0.20;0.20;;;;;;;9.09;100.00;98557.69;5049884;28;20036;-59
2024/03/23 00:18:13;;;;;;;0.30;0.30;;;;;;;9.10;100.00;98547.78;5050211;28;20052;-59
2024/03/23 00:20:43;;;;;;;0.20;0.20;;;;;;;8.87;100.00;98544.31;5048211;28;20569;-59
2024/03/23 00:23:14;;;;;;;0.20;0.20;;;;;;;8.74;100.00;98532.13;5049603;28;20044;-58
2024/03/23 00:25:44;;;;;;;0.20;0.20;;;;;;;8.72;100.00;98536.09;5047457;28;20127;-58
2024/03/23 00:28:13;;;;;;;0.30;0.30;;;;;;;8.73;100.00;98527.81;5053080;28;20040;-59
2024/03/23 00:30:40;;;;;;;0.38;0.38;;;;;;;8.65;100.00;98525.59;5054060;28;20135;-58
2024/03/23 00:33:08;;;;;;;0.30;0.30;;;;;;;8.45;100.00;98525.31;5048953;28;20076;-59
2024/03/23 00:35:36;;;;;;;0.30;0.30;;;;;;;8.23;100.00;98520.69;5045086;28;20128;-58
2024/03/23 00:38:04;;;;;;;0.30;0.30;;;;;;;8.23;100.00;98523.34;5049914;28;20045;-58
2024/03/23 00:40:32;;;;;;;0.30;0.30;;;;;;;8.46;100.00;98516.22;5045570;28;20060;-59
2024/03/23 00:43:00;;;;;;;0.32;0.32;;;;;;;8.61;100.00;98513.75;5047565;28;20127;-59
2024/03/23 00:45:30;;;;;;;0.13;0.13;;;;;;;8.67;100.00;98518.13;5050618;28;20157;-59
2024/03/23 00:48:00;;;;;;;0.20;0.20;;;;;;;8.73;100.00;98506.44;5050143;28;20049;-59
2024/03/23 00:50:31;;;;;;;0.20;0.20;;;;;;;8.61;100.00;98509.25;5054479;28;20674;-58
2024/03/23 00:53:02;;;;;;;0.20;0.20;;;;;;;8.60;100.00;98509.50;5053503;28;20372;-59
2024/03/23 00:55:29;;;;;;;0.20;0.20;;;;;;;8.71;100.00;98510.44;5050787;28;20047;-58
2024/03/23 00:57:56;;;;;;;0.20;0.20;;;;;;;8.66;100.00;98500.47;5037524;28;20049;-59
2024/03/23 01:00:22;;;;;;;0.22;0.22;;;;;;;8.68;100.00;98500.25;5049802;28;20041;-58
2024/03/23 01:02:49;;;;;;;0.30;0.30;;;;;;;8.80;100.00;98498.25;5051743;28;20056;-58
2024/03/23 01:05:16;;;;;;;0.20;0.20;;;;;;;8.76;100.00;98511.31;5047679;28;21003;-59
2024/03/23 01:07:43;;;;;;;0.20;0.20;;;;;;;8.71;100.00;98535.31;5056905;28;20103;-59
2024/03/23 01:10:09;;;;;;;0.20;0.20;;;;;;;8.60;100.00;98525.53;5050206;28;20119;-58
2024/03/23 01:12:38;;;;;;;0.20;0.20;;;;;;;8.47;100.00;98512.53;5050045;28;20115;-59
2024/03/23 01:15:04;;;;;;;0.22;0.22;;;;;;;8.46;100.00;98510.88;5052532;28;20469;-59
2024/03/23 01:17:31;;;;;;;0.30;0.30;;;;;;;8.48;100.00;98508.78;5055910;28;20512;-59
2024/03/23 01:19:58;;;;;;;0.30;0.30;;;;;;;8.45;100.00;98520.78;5049139;28;20133;-58
2024/03/23 01:22:25;;;;;;;0.30;0.30;;;;;;;8.40;100.00;98534.84;5041337;28;20041;-59
2024/03/23 01:24:51;;;;;;;0.20;0.20;;;;;;;8.34;100.00;98519.00;5053113;28;20124;-59
2024/03/23 01:27:18;;;;;;;0.30;0.30;;;;;;;8.16;100.00;98512.03;5054542;28;20041;-59
2024/03/23 01:29:45;;;;;;;0.30;0.30;;;;;;;8.04;100.00;98543.34;5053324;28;20059;-59
2024/03/23 01:32:12;;;;;;;0.30;0.30;;;;;;;7.74;100.00;98544.47;5057014;28;20823;-58
2024/03/23 01:34:38;;;;;;;0.30;0.30;;;;;;;7.49;100.00;98526.97;5054596;28;20056;-58
2024/03/23 01:37:05;;;;;;;0.30;0.30;;;;;;;7.53;100.00;98535.28;5050578;28;20499;-59
2024/03/23 01:39:31;;;;;;;0.30;0.30;;;;;;;7.50;100.00;98525.09;5055116;28;20060;-58
2024/03/23 01:41:58;;;;;;;0.30;0.30;;;;;;;7.34;100.00;98521.34;5049247;28;20045;-59
2024/03/23 01:44:24;;;;;;;0.30;0.30;;;;;;;7.35;100.00;98517.63;5048224;28;20087;-58
2024/03/23 01:46:53;;;;;;;0.22;0.22;;;;;;;7.53;100.00;98530.75;5050386;28;20065;-58
2024/03/23 01:49:19;;;;;;;0.30;0.30;;;;;;;7.31;100.00;98535.13;5053643;28;20048;-58
2024/03/23 01:51:46;;;;;;;0.30;0.30;;;;;;;7.43;100.00;98519.09;5054700;28;20094;-59
2024/03/23 01:54:12;;;;;;;0.30;0.30;;;;;;;7.24;100.00;98508.66;5048224;28;20041;-58
2024/03/23 01:56:39;;;;;;;0.38;0.38;;;;;;;7.21;100.00;98511.75;5053007;28;20056;-59
2024/03/23 01:59:05;;;;;;;0.30;0.30;;;;;;;7.27;100.00;98513.50;5051981;28;20098;-58
2024/03/23 02:01:32;;;;;;;0.20;0.20;;;;;;;7.11;100.00;98520.41;5049120;28;20059;-59
2024/03/23 02:04:00;;;;;;;0.20;0.20;;;;;;;7.31;100.00;98514.66;5052746;28;20065;-58
2024/03/23 02:06:27;;;;;;;0.20;0.20;;;;;;;7.16;100.00;98505.53;5048573;28;20045;-59
2024/03/23 02:08:55;;;;;;;0.30;0.30;;;;;;;7.01;100.00;98504.19;5048073;28;20068;-58
2024/03/23 02:11:22;;;;;;;0.30;0.30;;;;;;;7.04;100.00;98501.06;5053564;28;20044;-58
2024/03/23 02:13:48;;;;;;;0.30;0.30;;;;;;;7.08;100.00;98502.19;5056248;28;20432;-59
2024/03/23 02:16:15;;;;;;;0.30;0.30;;;;;;;7.00;100.00;98507.91;5051682;28;20462;-58
2024/03/23 02:18:41;;;;;;;0.25;0.25;;;;;;;7.17;100.00;98509.84;5056884;28;20551;-58
2024/03/23 02:21:10;;;;;;;0.30;0.30;;;;;;;6.87;100.00;98508.19;5050859;28;20047;-59
2024/03/23 02:23:37;;;;;;;0.30;0.30;;;;;;;6.93;100.00;98507.22;5056060;28;20581;-58
2024/03/23 02:26:04;;;;;;;0.30;0.30;;;;;;;7.03;100.00;98501.28;5057864;28;20052;-58
2024/03/23 02:28:30;;;;;;;0.38;0.38;;;;;;;7.10;100.00;98507.31;5054038;28;20044;-57
2024/03/23 02:30:58;;;;;;;0.30;0.30;;;;;;;6.99;100.00;98505.47;5047780;28;20115;-57
2024/03/23 02:33:24;;;;;;;0.30;0.30;;;;;;;6.92;100.00;98500.31;5085765;28;20049;-57
2024/03/23 02:35:51;;;;;;;0.30;0.30;;;;;;;6.80;100.00;98494.19;5049235;28;20127;-57
2024/03/23 02:38:17;;;;;;;0.30;0.30;;;;;;;6.65;100.00;98502.69;5046477;28;20044;-57
2024/03/23 02:40:46;;;;;;;0.40;0.40;;;;;;;6.60;100.00;98499.91;5051884;28;20106;-57
2024/03/23 02:43:12;;;;;;;0.40;0.40;;;;;;;6.62;100.00;98492.50;5049745;28;20047;-57
2024/03/23 02:45:39;;;;;;;0.30;0.30;;;;;;;6.68;100.00;98491.53;5054911;28;20617;-57
2024/03/23 02:48:06;;;;;;;0.30;0.30;;;;;;;6.26;100.00;98510.34;5055280;28;20091;-57
2024/03/23 02:50:33;;;;;;;0.30;0.30;;;;;;;6.38;100.00;98519.13;5044549;28;20782;-57
2024/03/23 02:52:59;;;;;;;0.30;0.30;;;;;;;6.52;100.00;98517.06;5050754;28;20040;-57
2024/03/23 02:55:26;;;;;;;0.35;0.35;;;;;;;6.51;100.00;98498.63;5049880;28;20441;-57
2024/03/23 02:57:53;;;;;;;0.40;0.40;;;;;;;6.40;100.00;98486.97;5047821;28;20381;-57
2024/03/23 03:00:21;;;;;;;0.40;0.40;;;;;;;6.25;100.00;98490.91;5053840;28;20082;-57
2024/03/23 03:02:47;;;;;;;0.30;0.30;;;;;;;6.26;100.00;98495.22;5052594;28;20072;-57
2024/03/23 03:05:14;;;;;;;0.40;0.40;;;;;;;6.18;100.00;98484.88;5047557;28;20562;-57
2024/03/23 03:07:40;;;;;;;0.30;0.30;;;;;;;6.21;100.00;98476.44;5052767;28;20751;-57
2024/03/23 03:10:10;;;;;;;0.35;0.35;;;;;;;6.02;100.00;98488.25;5050450;28;20040;-57
2024/03/23 03:12:38;;;;;;;0.40;0.40;;;;;;;5.99;100.00;98497.50;5057122;28;20502;-57
2024/03/23 03:15:06;;;;;;;0.40;0.40;;;;;;;6.06;100.00;98497.38;5050005;28;20048;-57
2024/03/23 03:17:33;;;;;;;0.47;0.47;;;;;;;6.06;100.00;98500.03;5056667;28;20037;-56
2024/03/23 03:19:59;;;;;;;0.40;0.40;;;;;;;6.09;100.00;98518.22;5046755;28;20140;-57
2024/03/23 03:22:26;;;;;;;0.30;0.30;;;;;;;6.26;100.00;98510.34;5046079;28;20041;-60
2024/03/23 03:24:52;;;;;;;0.40;0.40;;;;;;;6.31;100.00;98518.44;5052947;28;20036;-57
2024/03/23 03:27:20;;;;;;;0.22;0.22;;;;;;;6.33;100.00;98510.22;5054038;28;20117;-57
2024/03/23 03:29:46;;;;;;;0.30;0.30;;;;;;;6.38;100.00;98505.03;5045305;28;20064;-57
2024/03/23 03:32:14;;;;;;;0.40;0.40;;;;;;;6.62;100.00;98503.94;5044515;28;20045;-57
2024/03/23 03:34:40;;;;;;;0.30;0.30;;;;;;;6.26;100.00;98510.34;5050771;28;20095;-57
2024/03/23 03:37:07;;;;;;;0.40;0.40;;;;;;;6.11;100.00;98502.81;5045608;28;20068;-57
2024/03/23 03:39:34;;;;;;;0.40;0.40;;;;;;;6.24;100.00;98505.28;5056695;28;20077;-60
2024/03/23 03:42:01;;;;;;;0.30;0.30;;;;;;;6.29;100.00;98520.53;5042722;28;20111;-57
2024/03/23 03:44:27;;;;;;;0.40;0.40;;;;;;;6.01;100.00;98524.66;5058898;28;20044;-59
2024/03/23 03:46:54;;;;;;;0.40;0.40;;;;;;;6.11;100.00;98526.75;5047192;28;20494;-60
2024/03/23 03:49:22;;;;;;;0.40;0.40;;;;;;;5.95;100.00;98536.25;5048493;28;20044;-57
2024/03/23 03:51:49;;;;;;;0.38;0.38;;;;;;;5.84;100.00;98529.84;5051111;28;20049;-57
2024/03/23 03:54:15;;;;;;;0.40;0.40;;;;;;;5.86;100.00;98534.91;5044579;28;20151;-58
2024/03/23 03:56:42;;;;;;;0.35;0.35;;;;;;;5.72;100.00;98534.31;5051824;28;20820;-58
2024/03/23 03:59:09;;;;;;;0.32;0.32;;;;;;;5.57;100.00;98542.72;5053434;28;20036;-58
2024/03/23 04:01:36;;;;;;;0.30;0.30;;;;;;;5.36;100.00;98538.69;5048236;28;20732;-58
2024/03/23 04:04:02;;;;;;;0.50;0.50;;;;;;;5.49;100.00;98547.53;5048288;28;20076;-58
2024/03/23 04:06:33;;;;;;;0.40;0.40;;;;;;;5.32;100.00;98561.47;5051408;28;20515;-57
2024/03/23 04:08:59;;;;;;;0.40;0.40;;;;;;;5.10;100.00;98557.66;5047826;28;20041;-58
2024/03/23 04:11:26;;;;;;;0.32;0.32;;;;;;;4.96;100.00;98560.44;5051568;28;20055;-58
2024/03/23 04:13:52;;;;;;;0.38;0.38;;;;;;;4.91;100.00;98562.16;5045488;28;20131;-58
2024/03/23 04:16:27;;;;;;;0.40;0.40;;;;;;;4.78;100.00;98563.13;5049182;28;20052;-58
2024/03/23 04:18:53;;;;;;;0.50;0.50;;;;;;;4.92;100.00;98593.81;5049329;28;20048;-58
2024/03/23 04:21:20;;;;;;;0.40;0.40;;;;;;;4.76;100.00;98591.72;5044966;28;20040;-58
2024/03/23 04:23:48;;;;;;;0.50;0.50;;;;;;;4.69;100.00;98607.75;5047013;28;20084;-57
2024/03/23 04:26:16;;;;;;;0.50;0.50;;;;;;;4.67;100.00;98609.00;5050946;28;20036;-58
2024/03/23 04:28:42;;;;;;;0.50;0.50;;;;;;;4.61;100.00;98609.84;5054635;28;20098;-58
2024/03/23 04:31:10;;;;;;;0.50;0.50;;;;;;;4.58;100.00;98613.75;5045303;28;20513;-58
2024/03/23 04:33:36;;;;;;;0.50;0.50;;;;;;;4.45;100.00;98617.34;5046494;28;20045;-58
2024/03/23 04:36:03;;;;;;;0.40;0.40;;;;;;;4.52;100.00;98604.84;5050184;28;20394;-58
2024/03/23 04:38:30;;;;;;;0.43;0.43;;;;;;;4.22;100.00;98619.78;5051488;28;20048;-58
2024/03/23 04:40:59;;;;;;;0.50;0.50;;;;;;;4.64;100.00;98614.72;5045943;28;20052;-58
2024/03/23 04:43:27;;;;;;;0.50;0.50;;;;;;;4.54;100.00;98615.22;5050346;28;20055;-58
2024/03/23 04:45:54;;;;;;;0.50;0.50;;;;;;;4.26;100.00;98608.50;5048744;28;20044;-58
2024/03/23 04:48:22;;;;;;;0.50;0.50;;;;;;;4.26;100.00;98605.06;5052427;28;20049;-58
2024/03/23 04:50:50;;;;;;;0.50;0.50;;;;;;;4.48;100.00;98606.28;5032168;28;20061;-58
2024/03/23 04:53:17;;;;;;;0.40;0.40;;;;;;;4.09;100.00;98607.44;5050615;28;20140;-58
2024/03/23 04:55:45;;;;;;;0.40;0.40;;;;;;;4.05;100.00;98609.72;5051460;28;20162;-58
2024/03/23 04:58:12;;;;;;;0.40;0.40;;;;;;;4.24;100.00;98612.41;5047873;28;20136;-57
2024/03/23 05:00:39;;;;;;;0.57;0.57;;;;;;;4.16;100.00;98618.00;5046743;28;20415;-58
2024/03/23 05:03:05;;;;;;;0.50;0.50;;;;;;;4.31;100.00;98616.63;5046787;28;20122;-58
2024/03/23 05:05:33;;;;;;;0.40;0.40;;;;;;;4.10;100.00;98614.38;5053060;28;20128;-58
2024/03/23 05:07:59;;;;;;;0.50;0.50;;;;;;;4.04;100.00;98623.16;5058296;28;20063;-58
2024/03/23 05:10:26;;;;;;;0.50;0.50;;;;;;;4.34;100.00;98631.31;5050547;28;20710;-58
2024/03/23 05:12:52;;;;;;;0.50;0.50;;;;;;;4.00;100.00;98632.59;5049838;28;20044;-58
2024/03/23 05:15:21;;;;;;;0.60;0.60;;;;;;;4.16;100.00;98644.50;5049357;28;20107;-58
2024/03/23 05:17:47;;;;;;;0.50;0.50;;;;;;;4.10;100.00;98636.38;5056171;28;20043;-58
2024/03/23 05:20:14;;;;;;;0.55;0.55;;;;;;;4.35;100.00;98637.44;5049514;28;20107;-58
2024/03/23 05:22:40;;;;;;;0.45;0.45;;;;;;;4.24;100.00;98630.97;5049302;28;21154;-58
2024/03/23 05:25:09;;;;;;;0.45;0.45;;;;;;;4.52;100.00;98630.56;5059540;28;20052;-58
2024/03/23 05:27:36;;;;;;;0.50;0.50;;;;;;;4.69;100.00;98638.75;5052014;28;20093;-58
2024/03/23 05:30:05;;;;;;;0.47;0.47;;;;;;;4.50;100.00;98653.84;5051569;28;20045;-58
2024/03/23 05:32:33;;;;;;;0.35;0.35;;;;;;;4.29;100.00;98663.81;5050785;28;20055;-59
2024/03/23 05:35:00;;;;;;;0.40;0.40;;;;;;;4.44;100.00;98662.66;5051377;28;20752;-58
2024/03/23 05:37:27;;;;;;;0.50;0.50;;;;;;;4.44;100.00;98662.66;5053651;28;20390;-58
2024/03/23 05:39:54;;;;;;;0.50;0.50;;;;;;;4.35;100.00;98670.09;5047070;28;20045;-58
2024/03/23 05:42:20;;;;;;;0.50;0.50;;;;;;;4.45;100.00;98670.41;5050499;28;20045;-58
2024/03/23 05:44:47;;;;;;;0.47;0.47;;;;;;;4.59;100.00;98671.09;5051838;28;20469;-58
2024/03/23 05:47:16;;;;;;;0.50;0.50;;;;;;;4.39;100.00;98676.56;5053483;28;20052;-58
2024/03/23 05:49:44;;;;;;;0.50;0.50;;;;;;;4.39;100.00;98681.88;5048945;28;20048;-58
2024/03/23 05:52:13;;;;;;;0.47;0.47;;;;;;;4.37;100.00;98681.31;5056302;28;20106;-58
2024/03/23 05:54:41;;;;;;;0.40;0.40;;;;;;;4.59;100.00;98672.97;5052441;28;20057;-58
2024/03/23 05:57:09;;;;;;;0.50;0.50;;;;;;;4.58;100.00;98674.00;5054617;28;20506;-58
2024/03/23 05:59:36;;;;;;;0.50;0.50;;;;;;;4.70;100.00;98667.75;5057706;28;20040;-58
2024/03/23 06:02:03;;;;;;;0.50;0.50;;;;;;;4.69;100.00;98676.78;5054271;28;20171;-58
2024/03/23 06:04:30;;;;;;;0.40;0.40;;;;;;;4.53;100.00;98683.41;5050120;28;20052;-58
2024/03/23 06:06:58;;;;;;;0.38;0.38;;;;;;;4.73;100.00;98679.78;5052940;28;20522;-58
2024/03/23 06:09:25;;;;;;;0.43;0.43;;;;;;;5.30;100.00;98680.44;5051230;28;20048;-58
2024/03/23 06:11:51;;;;;;;0.40;0.40;;;;;;;4.89;100.00;98681.91;5050873;28;20049;-57
2024/03/23 06:14:18;;;;;;;0.50;0.50;;;;;;;5.37;100.00;98686.50;5055812;28;20049;-57
2024/03/23 06:16:44;;;;;;;0.40;0.40;;;;;;;5.14;100.00;98678.34;5046762;28;20094;-58
2024/03/23 06:19:11;;;;;;;0.40;0.40;;;;;;;5.05;100.00;98677.84;5050952;28;20045;-58
2024/03/23 06:21:37;;;;;;;0.30;0.30;;;;;;;5.14;100.00;98683.69;5047132;28;20479;-59
2024/03/23 06:24:06;;;;;;;0.40;0.40;;;;;;;5.27;100.00;98688.88;5057861;28;20132;-58
2024/03/23 06:26:33;;;;;;;0.40;0.40;;;;;;;5.31;100.00;98692.69;5050981;28;20427;-59
2024/03/23 06:29:00;;;;;;;0.40;0.40;;;;;;;5.46;100.00;98686.19;5036394;28;20049;-59
2024/03/23 06:31:26;;;;;;;0.30;0.30;;;;;;;5.53;100.00;98689.59;5051182;28;20060;-58
2024/03/23 06:33:53;;;;;;;0.40;0.40;;;;;;;5.54;100.00;98694.69;5054873;28;20530;-58
2024/03/23 06:36:19;;;;;;;0.40;0.40;;;;;;;5.49;100.00;98705.19;5051181;28;20717;-59
2024/03/23 06:38:46;;;;;;;0.40;0.40;;;;;;;5.93;100.00;98699.72;5057073;28;20591;-58
2024/03/23 06:41:14;;;;;;;0.40;0.40;;;;;;;6.31;100.00;98711.91;5056559;28;20539;-59
2024/03/23 06:43:41;;;;;;;0.30;0.30;;;;;;;6.55;100.00;98715.47;5051004;28;20109;-58
2024/03/23 06:46:07;;;;;;;0.40;0.40;;;;;;;7.24;100.00;98735.22;5052619;28;20045;-58
2024/03/23 06:48:34;;;;;;;0.35;0.35;;;;;;;7.05;100.00;98742.50;5051088;28;20969;-58
2024/03/23 06:51:00;;;;;;;0.40;0.40;;;;;;;7.26;100.00;98753.63;5052118;28;20636;-57
2024/03/23 06:53:27;;;;;;;0.28;0.28;;;;;;;7.75;100.00;98746.16;5056011;28;20044;-58
2024/03/23 06:55:53;;;;;;;0.32;0.32;;;;;;;6.76;100.00;98748.72;5056539;28;20131;-58
2024/03/23 06:58:22;;;;;;;0.30;0.30;;;;;;;6.91;100.00;98746.41;5054489;28;20048;-58
2024/03/23 07:00:49;;;;;;;0.30;0.30;;;;;;;7.24;100.00;98756.53;5049431;28;20465;-58
2024/03/23 07:03:16;;;;;;;0.30;0.30;;;;;;;7.05;100.00;98752.34;5055692;28;20546;-58
2024/03/23 07:05:42;;;;;;;0.47;0.47;;;;;;;7.84;100.00;98750.06;5052343;28;20118;-58
2024/03/23 07:08:09;;;;;;;0.50;0.50;;;;;;;8.28;94.71;98742.34;5052059;28;20040;-58
2024/03/23 07:10:35;;;;;;;0.38;0.38;;;;;;;9.07;98.75;98736.22;5053177;28;20057;-58
2024/03/23 07:13:02;;;;;;;0.28;0.28;;;;;;;8.74;87.80;98740.53;5050651;28;20040;-58
2024/03/23 07:15:30;;;;;;;0.30;0.30;;;;;;;8.90;96.56;98741.56;5054914;28;20032;-58
2024/03/23 07:17:57;;;;;;;0.30;0.30;;;;;;;8.89;93.18;98731.94;5047654;28;20045;-58
2024/03/23 07:20:23;;;;;;;0.45;0.45;;;;;;;10.38;89.18;98739.22;5048580;28;20621;-58
2024/03/23 07:22:50;;;;;;;0.50;0.50;;;;;;;12.03;79.76;98754.31;5050963;28;20047;-58
2024/03/23 07:25:16;;;;;;;0.30;0.30;;;;;;;12.59;73.34;98753.63;5056703;28;20048;-58
2024/03/23 07:27:44;;;;;;;0.20;0.20;;;;;;;10.33;78.65;98740.81;5058266;28;20055;-58
2024/03/23 07:30:10;;;;;;;0.20;0.20;;;;;;;8.68;86.01;98749.50;5050180;28;20071;-58
2024/03/23 07:32:39;;;;;;;0.40;0.40;;;;;;;9.51;84.87;98741.69;5048097;28;20061;-58
2024/03/23 07:35:05;;;;;;;0.40;0.40;;;;;;;11.13;75.90;98750.84;5053924;28;20132;-58
2024/03/23 07:37:33;;;;;;;0.30;0.30;;;;;;;10.84;75.80;98753.84;5054776;28;20687;-59
2024/03/23 07:39:59;;;;;;;0.20;0.20;;;;;;;11.36;73.37;98755.84;5052114;28;20102;-58
2024/03/23 07:42:26;;;;;;;0.20;0.20;;;;;;;11.13;75.90;98761.56;5046963;28;20049;-58
2024/03/23 07:44:54;;;;;;;0.40;0.40;;;;;;;12.00;71.66;98767.44;5049596;28;20041;-58
2024/03/23 07:47:21;;;;;;;0.30;0.30;;;;;;;12.16;69.44;98779.88;5052056;28;20518;-58
2024/03/23 07:49:49;;;;;;;0.20;0.20;;;;;;;12.23;68.40;98775.06;5053616;28;20060;-58
2024/03/23 07:52:18;;;;;;;0.30;0.30;;;;;;;11.54;72.40;98783.31;5045546;28;20066;-59
2024/03/23 07:54:44;;;;;;;0.30;0.30;;;;;;;12.21;68.35;98787.16;5056612;28;20044;-58
2024/03/23 07:57:11;;;;;;;0.20;0.20;;;;;;;12.32;68.01;98780.72;5058058;28;20044;-58
2024/03/23 07:59:37;;;;;;;0.30;0.30;;;;;;;12.73;64.47;98784.31;5047889;28;20041;-58
2024/03/23 08:02:04;;;;;;;0.20;0.20;;;;;;;13.16;63.23;98786.75;5047869;28;20036;-58
2024/03/23 08:04:30;;;;;;;0.20;0.20;;;;;;;12.93;62.28;98788.09;5051147;28;20053;-58
2024/03/23 08:06:59;;;;;;;0.30;0.30;;;;;;;12.78;61.74;98788.06;5051630;28;20044;-59
2024/03/23 08:09:25;;;;;;;0.20;0.20;;;;;;;12.32;63.64;98788.78;5045211;28;20060;-59
2024/03/23 08:11:52;;;;;;;0.30;0.30;;;;;;;11.90;63.22;98788.91;5048570;28;20044;-59
2024/03/23 08:14:18;;;;;;;0.25;0.25;;;;;;;12.48;60.92;98781.56;5046364;28;20410;-58
2024/03/23 08:16:48;;;;;;;0.30;0.30;;;;;;;11.97;63.92;98800.22;5052200;28;20911;-58
2024/03/23 08:19:14;;;;;;;0.30;0.30;;;;;;;11.89;63.39;98806.09;5047914;28;20509;-58
2024/03/23 08:21:41;;;;;;;0.28;0.28;;;;;;;11.89;62.25;98804.22;5042900;28;20049;-58
2024/03/23 08:24:09;;;;;;;0.20;0.20;;;;;;;12.51;61.55;98794.50;5044868;28;20049;-58
2024/03/23 08:26:37;;;;;;;0.20;0.20;;;;;;;12.92;58.26;98797.22;5051807;28;20354;-58
2024/03/23 08:29:04;;;;;;;0.20;0.20;;;;;;;12.76;58.74;98798.31;5047502;28;20037;-58
2024/03/23 08:31:31;;;;;;;0.20;0.20;;;;;;;12.88;58.83;98798.81;5044867;28;20043;-57
2024/03/23 08:33:57;;;;;;;0.20;0.20;;;;;;;13.21;55.97;98816.34;5045341;28;20140;-57
2024/03/23 08:36:25;;;;;;;0.20;0.20;;;;;;;12.63;55.31;98813.88;5045554;28;20712;-57
2024/03/23 08:38:53;;;;;;;0.20;0.20;;;;;;;13.41;55.49;98804.00;5051770;28;20041;-57
2024/03/23 08:41:22;;;;;;;0.10;0.10;;;;;;;13.19;55.41;98805.03;5048980;28;20068;-57
2024/03/23 08:43:48;;;;;;;0.20;0.20;;;;;;;13.56;55.14;98796.69;5049436;28;20136;-58
2024/03/23 08:46:15;;;;;;;0.10;0.10;;;;;;;12.78;56.69;98802.34;5049804;28;20028;-58
2024/03/23 08:48:43;;;;;;;0.10;0.10;;;;;;;12.10;58.27;98802.41;5056581;28;20044;-58
2024/03/23 08:51:11;;;;;;;0.20;0.20;;;;;;;12.36;58.56;98806.00;5049629;28;20045;-58
2024/03/23 08:53:37;;;;;;;0.20;0.20;;;;;;;13.02;57.70;98802.59;5055920;28;20051;-58
2024/03/23 08:56:05;;;;;;;0.20;0.20;;;;;;;12.98;55.08;98806.09;5053247;28;20047;-58
2024/03/23 08:58:33;;;;;;;0.20;0.20;;;;;;;12.46;57.90;98814.09;5051870;28;20064;-58
2024/03/23 09:01:04;;;;;;;0.20;0.20;;;;;;;13.48;54.28;98816.09;5055015;28;20041;-58
2024/03/23 09:03:30;;;;;;;0.10;0.10;;;;;;;12.95;55.09;98804.75;5049851;28;20438;-58
2024/03/23 09:05:58;;;;;;;0.20;0.20;;;;;;;13.79;53.04;98795.28;5055283;28;20037;-57
2024/03/23 09:08:24;;;;;;;0.20;0.20;;;;;;;14.53;52.40;98808.19;5056622;28;20110;-58
2024/03/23 09:10:51;;;;;;;0.10;0.10;;;;;;;14.19;51.85;98790.00;5055519;28;20053;-58
2024/03/23 09:13:17;;;;;;;0.10;0.10;;;;;;;13.33;53.25;98783.81;5065042;28;20079;-58
2024/03/23 09:15:48;;;;;;;0.10;0.10;;;;;;;12.36;55.89;98783.72;5058150;28;20067;-58
2024/03/23 09:18:14;;;;;;;0.10;0.10;;;;;;;11.24;59.49;98784.72;5055178;28;20049;-58
2024/03/23 09:20:41;;;;;;;0.10;0.10;;;;;;;10.51;61.61;98787.84;5053292;28;20074;-57
2024/03/23 09:23:07;;;;;;;0.10;0.10;;;;;;;10.55;62.62;98791.63;5063901;28;20392;-57
2024/03/23 09:25:37;;;;;;;0.20;0.20;;;;;;;10.97;60.66;98796.31;5050241;28;20069;-57
2024/03/23 09:28:04;;;;;;;0.30;0.30;;;;;;;11.38;57.76;98787.75;5048992;28;20807;-58
2024/03/23 09:30:31;;;;;;;0.20;0.20;;;;;;;11.50;57.53;98783.00;5052099;28;20045;-58
2024/03/23 09:32:58;;;;;;;0.20;0.20;;;;;;;11.09;58.36;98787.31;5054053;28;20544;-57
2024/03/23 09:35:25;;;;;;;0.20;0.20;;;;;;;11.18;59.27;98788.41;5056123;28;20052;-57
2024/03/23 09:37:51;;;;;;;0.20;0.20;;;;;;;10.56;57.29;98787.09;5057252;28;20587;-58
2024/03/23 09:40:19;;;;;;;0.20;0.20;;;;;;;11.37;57.08;98792.31;5056586;28;20058;-58
2024/03/23 09:42:50;;;;;;;0.20;0.20;;;;;;;11.47;56.10;98783.53;5050738;28;20037;-58
2024/03/23 09:45:19;;;;;;;0.20;0.20;;;;;;;11.14;54.93;98784.66;5050618;28;20049;-58
2024/03/23 09:47:46;;;;;;;0.30;0.30;;;;;;;12.59;52.90;98788.59;5052619;28;20040;-57
2024/03/23 09:50:15;;;;;;;0.20;0.20;;;;;;;13.43;52.36;98794.56;5053611;28;20347;-58
2024/03/23 09:52:41;;;;;;;0.30;0.30;;;;;;;13.64;48.82;98783.75;5049061;28;20094;-57
2024/03/23 09:55:09;;;;;;;0.20;0.20;;;;;;;13.83;52.09;98787.47;5056200;28;20094;-58
2024/03/23 09:57:35;;;;;;;0.20;0.20;;;;;;;13.64;50.88;98778.38;5054174;28;20041;-58
2024/03/23 10:00:02;;;;;;;0.20;0.20;;;;;;;14.30;50.25;98777.28;5057696;28;20070;-58
2024/03/23 10:02:33;;;;;;;0.10;0.10;;;;;;;13.86;51.18;98778.84;5050687;28;20060;-58
2024/03/23 10:05:00;;;;;;;0.10;0.10;;;;;;;12.96;50.89;98779.50;5046771;28;20033;-57
2024/03/23 10:07:28;;;;;;;0.10;0.10;;;;;;;11.89;53.85;98774.66;5048678;28;20047;-57
2024/03/23 10:09:55;;;;;;;0.10;0.10;;;;;;;11.93;53.77;98777.63;5047622;28;20057;-58
2024/03/23 10:12:22;;;;;;;0.10;0.10;;;;;;;12.06;54.51;98777.16;5047946;28;20037;-57
2024/03/23 10:14:49;;;;;;;0.17;0.17;;;;;;;11.36;55.74;98776.50;5050362;28;20112;-58
2024/03/23 10:17:17;;;;;;;0.20;0.20;;;;;;;11.18;54.48;98775.84;5053945;28;20452;-58
2024/03/23 10:19:44;;;;;;;0.13;0.13;;;;;;;11.43;53.89;98775.22;5052334;28;20044;-58
2024/03/23 10:22:13;;;;;;;0.20;0.20;;;;;;;11.34;54.33;98767.91;5057846;28;20076;-58
2024/03/23 10:24:42;;;;;;;0.10;0.10;;;;;;;10.91;54.24;98765.16;5055703;28;20077;-58
2024/03/23 10:27:08;;;;;;;0.20;0.20;;;;;;;10.65;57.76;98771.38;5054333;28;20125;-58
2024/03/23 10:29:35;;;;;;;0.20;0.20;;;;;;;10.40;59.24;98764.69;5057760;28;20087;-57
2024/03/23 10:32:10;;;;;;;0.30;0.30;;;;;;;10.27;59.31;98754.34;5055935;28;20124;-58
2024/03/23 10:34:37;;;;;;;0.10;0.10;;;;;;;10.78;58.73;98760.22;5044689;28;20597;-58
2024/03/23 10:37:04;;;;;;;0.20;0.20;;;;;;;10.17;57.76;98754.25;5054334;28;20082;-58
2024/03/23 10:39:35;;;;;;;0.20;0.20;;;;;;;10.12;57.64;98758.47;5055573;28;20040;-58
2024/03/23 10:42:04;;;;;;;0.20;0.20;;;;;;;9.74;59.60;98755.88;5053926;28;20386;-58
2024/03/23 10:44:31;;;;;;;0.30;0.30;;;;;;;11.05;60.04;98748.66;5054421;28;20407;-58
2024/03/23 10:46:59;;;;;;;0.20;0.20;;;;;;;11.04;58.86;98752.41;5049220;28;20045;-58
2024/03/23 10:49:29;;;;;;;0.20;0.20;;;;;;;11.26;57.64;98745.03;5055336;28;20066;-57
2024/03/23 10:51:59;;;;;;;0.25;0.25;;;;;;;12.73;54.64;98746.66;5049349;28;20040;-58
2024/03/23 10:54:26;;;;;;;0.30;0.30;;;;;;;13.71;51.81;98746.56;5047677;28;21017;-58
2024/03/23 10:56:57;;;;;;;0.30;0.30;;;;;;;13.73;50.21;98731.75;5054339;28;20059;-58
2024/03/23 10:59:25;;;;;;;0.20;0.20;;;;;;;13.28;49.43;98729.97;5052936;28;20595;-58
2024/03/23 11:01:55;;;;;;;0.20;0.20;;;;;;;14.31;48.05;98730.41;5049320;28;20041;-59
2024/03/23 11:04:30;;;;;;;0.20;0.20;;;;;;;13.98;48.63;98738.13;5057243;28;20065;-58
2024/03/23 11:06:57;;;;;;;0.10;0.10;;;;;;;12.94;51.70;98741.28;5057196;28;20471;-58
2024/03/23 11:09:45;;;;;;;0.10;0.10;;;;;;;11.63;52.25;98738.78;5057172;28;20036;-58
2024/03/23 11:12:25;;;;;;;0.10;0.10;;;;;;;11.42;54.13;98757.47;5052223;28;20097;-58
2024/03/23 11:14:53;;;;;;;0.20;0.20;;;;;;;11.20;54.25;98754.91;5050757;28;20049;-58
2024/03/23 11:17:22;;;;;;;0.10;0.10;;;;;;;10.34;62.61;98755.81;5050310;28;20045;-58
2024/03/23 11:19:55;;;;;;;0.17;0.17;;;;;;;9.97;68.28;98757.50;5051671;28;20048;-58
2024/03/23 11:22:41;;;;;;;0.15;0.15;;;;;;;9.79;67.61;98753.28;5048622;28;20071;-57
2024/03/23 11:25:16;;;;;;;0.30;0.30;;;;;;;10.07;68.94;98750.38;5056709;28;20044;-57
2024/03/23 11:27:43;;;;;;;0.30;0.30;;;;;;;9.72;68.11;98737.38;5054354;28;20430;-57
2024/03/23 11:30:13;;;;;;;0.30;0.30;;;;;;;9.45;70.46;98742.66;5051279;28;20047;-57
2024/03/23 11:32:39;;;;;;;0.20;0.20;;;;;;;9.09;72.90;98744.81;5055323;28;20036;-55
2024/03/23 11:35:09;;;;;;;0.30;0.30;;;;;;;9.54;71.63;98741.19;5054684;28;20052;-57